createdAt,value
2022-08-30T00:02:55.045Z,100488.19
2022-08-30T00:05:56.622Z,100488.03
2022-08-30T00:08:58.193Z,100485.13
2022-08-30T00:12:00.079Z,100485.25
2022-08-30T00:15:02.170Z,100487.94
2022-08-30T00:18:03.921Z,100482.66
2022-08-30T00:21:06.649Z,100482.59
2022-08-30T00:24:08.087Z,100482.47
2022-08-30T00:27:09.575Z,100475.28
2022-08-30T00:30:12.147Z,100478.34
2022-08-30T00:33:14.914Z,100474.84
2022-08-30T00:36:16.469Z,100472.66
2022-08-30T00:39:17.902Z,100480.47
2022-08-30T00:42:21.411Z,100473.28
2022-08-30T00:45:26.955Z,100479.66
2022-08-30T00:48:28.403Z,100482.31
2022-08-30T00:51:31.736Z,100489.03
2022-08-30T00:54:36.078Z,100497.84
2022-08-30T00:57:37.701Z,100498.00
2022-08-30T01:00:40.011Z,100499.69
2022-08-30T01:03:43.397Z,100509.03
2022-08-30T01:06:44.793Z,100506.38
2022-08-30T01:09:46.281Z,100508.31
2022-08-30T01:12:48.498Z,100509.63
2022-08-30T01:15:51.235Z,100505.78
2022-08-30T01:18:57.065Z,100508.50
2022-08-30T01:22:02.958Z,100510.72
2022-08-30T01:25:08.268Z,100517.56
2022-08-30T01:28:14.198Z,100512.97
2022-08-30T01:31:16.336Z,100510.53
2022-08-30T01:34:18.142Z,100501.16
2022-08-30T01:37:23.776Z,100501.38
2022-08-30T01:40:25.520Z,100511.41
2022-08-30T01:43:27.736Z,100508.75
2022-08-30T01:46:36.620Z,100495.47
2022-08-30T01:49:38.891Z,100495.28
2022-08-30T01:52:40.346Z,100499.44
2022-08-30T01:55:42.410Z,100495.66
2022-08-30T01:58:44.408Z,100491.28
2022-08-30T02:01:45.951Z,100484.63
2022-08-30T02:04:47.478Z,100484.34
2022-08-30T02:07:48.931Z,100486.31
2022-08-30T02:10:50.428Z,100479.03
2022-08-30T02:13:51.891Z,100471.97
2022-08-30T02:16:53.414Z,100489.84
2022-08-30T02:19:55.221Z,100494.13
2022-08-30T02:22:59.683Z,100502.59
2022-08-30T02:26:03.681Z,100502.19
2022-08-30T02:29:06.026Z,100494.28
2022-08-30T02:32:07.468Z,100498.53
2022-08-30T02:35:09.492Z,100490.72
2022-08-30T02:38:11.392Z,100487.59
2022-08-30T02:41:13.250Z,100489.47
2022-08-30T02:44:15.252Z,100487.75
2022-08-30T02:47:16.799Z,100479.00
2022-08-30T02:50:18.463Z,100488.63
2022-08-30T02:53:21.103Z,100490.44
2022-08-30T02:56:22.573Z,100489.66
2022-08-30T02:59:23.977Z,100487.72
2022-08-30T03:02:25.974Z,100474.22
2022-08-30T03:05:27.699Z,100473.59
2022-08-30T03:08:30.034Z,100464.28
2022-08-30T03:11:31.671Z,100466.81
2022-08-30T03:14:35.448Z,100476.56
2022-08-30T03:17:36.953Z,100475.28
2022-08-30T03:20:38.725Z,100469.59
2022-08-30T03:23:41.140Z,100458.97
2022-08-30T03:26:46.171Z,100450.84
2022-08-30T03:29:48.075Z,100468.84
2022-08-30T03:32:49.547Z,100460.38
2022-08-30T03:35:52.904Z,100466.34
2022-08-30T03:38:54.402Z,100471.69
2022-08-30T03:41:55.837Z,100477.72
2022-08-30T03:44:57.218Z,100469.72
2022-08-30T03:47:59.064Z,100468.50
2022-08-30T03:51:00.532Z,100451.91
2022-08-30T03:54:02.781Z,100461.13
2022-08-30T03:57:04.545Z,100460.44
2022-08-30T04:00:07.367Z,100460.69
2022-08-30T04:03:09.266Z,100458.22
2022-08-30T04:06:10.774Z,100462.03
2022-08-30T04:09:12.252Z,100460.44
2022-08-30T04:12:13.691Z,100460.31
2022-08-30T04:15:20.400Z,100464.81
2022-08-30T04:18:22.028Z,100465.75
2022-08-30T04:21:23.517Z,100463.06
2022-08-30T04:24:25.387Z,100463.66
2022-08-30T04:27:26.802Z,100480.44
2022-08-30T04:30:28.280Z,100472.88
2022-08-30T04:33:29.750Z,100478.41
2022-08-30T04:36:36.287Z,100471.59
2022-08-30T04:39:37.741Z,100474.59
2022-08-30T04:42:39.678Z,100471.03
2022-08-30T04:45:42.037Z,100464.13
2022-08-30T04:48:43.876Z,100466.41
2022-08-30T04:51:46.220Z,100473.13
2022-08-30T04:54:47.652Z,100487.44
2022-08-30T04:57:49.460Z,100484.56
2022-08-30T05:00:51.066Z,100484.50
2022-08-30T05:03:54.565Z,100493.69
2022-08-30T05:06:56.675Z,100490.09
2022-08-30T05:09:58.425Z,100492.59
2022-08-30T05:13:00.468Z,100500.16
2022-08-30T05:16:03.784Z,100504.09
2022-08-30T05:19:05.472Z,100497.66
2022-08-30T05:22:06.909Z,100506.31
2022-08-30T05:25:08.989Z,100503.97
2022-08-30T05:28:10.568Z,100509.69
2022-08-30T05:31:33.034Z,100504.53
2022-08-30T05:34:34.739Z,100520.56
2022-08-30T05:37:36.806Z,100523.78
2022-08-30T05:40:44.040Z,100523.13
2022-08-30T05:43:45.550Z,100528.19
2022-08-30T05:46:47.909Z,100530.59
2022-08-30T05:49:49.579Z,100533.25
2022-08-30T05:52:50.991Z,100533.97
2022-08-30T05:55:54.653Z,100527.72
2022-08-30T05:58:56.076Z,100536.69
2022-08-30T06:01:58.512Z,100530.69
2022-08-30T06:05:02.514Z,100531.97
2022-08-30T06:08:04.685Z,100521.84
2022-08-30T06:11:06.147Z,100513.19
2022-08-30T06:14:08.117Z,100520.69
2022-08-30T06:17:10.602Z,100524.50
2022-08-30T06:20:12.286Z,100512.16
2022-08-30T06:23:14.330Z,100506.97
2022-08-30T06:26:16.644Z,100506.72
2022-08-30T06:29:21.193Z,100505.91
2022-08-30T06:32:22.755Z,100506.72
2022-08-30T06:35:25.454Z,100509.16
2022-08-30T06:38:27.587Z,100512.59
2022-08-30T06:41:32.085Z,100512.75
2022-08-30T06:44:33.472Z,100509.75
2022-08-30T06:47:35.010Z,100523.25
2022-08-30T06:50:36.430Z,100520.66
2022-08-30T06:53:39.301Z,100515.63
2022-08-30T06:56:57.566Z,100511.41
2022-08-30T06:59:59.848Z,100533.22
2022-08-30T07:03:02.509Z,100528.84
2022-08-30T07:06:04.468Z,100533.50
2022-08-30T07:09:06.251Z,100539.56
2022-08-30T07:12:08.621Z,100537.13
2022-08-30T07:15:10.564Z,100539.84
2022-08-30T07:18:31.907Z,100542.50
2022-08-30T07:21:45.666Z,100538.13
2022-08-30T07:24:47.396Z,100541.88
2022-08-30T07:27:51.808Z,100543.47
2022-08-30T07:30:53.268Z,100549.38
2022-08-30T07:33:54.978Z,100544.63
2022-08-30T07:36:56.497Z,100550.34
2022-08-30T07:39:58.092Z,100546.47
2022-08-30T07:43:02.156Z,100551.50
2022-08-30T07:46:07.634Z,100551.75
2022-08-30T07:49:11.528Z,100557.22
2022-08-30T07:52:13.106Z,100552.13
2022-08-30T07:55:15.065Z,100552.75
2022-08-30T07:58:16.851Z,100558.19
2022-08-30T08:01:19.646Z,100553.72
2022-08-30T08:04:21.223Z,100545.34
2022-08-30T08:07:22.801Z,100548.88
2022-08-30T08:10:24.304Z,100551.78
2022-08-30T08:13:27.914Z,100558.47
2022-08-30T08:16:30.958Z,100548.47
2022-08-30T08:19:32.478Z,100551.13
2022-08-30T08:22:36.867Z,100557.59
2022-08-30T08:25:41.590Z,100549.91
2022-08-30T08:28:44.970Z,100549.91
2022-08-30T08:31:47.081Z,100541.16
2022-08-30T08:34:48.935Z,100543.13
2022-08-30T08:37:50.409Z,100545.25
2022-08-30T08:41:15.046Z,100542.16
2022-08-30T08:44:39.358Z,100542.81
2022-08-30T08:48:06.266Z,100544.91
2022-08-30T08:51:30.607Z,100538.31
2022-08-30T08:54:49.955Z,100535.78
2022-08-30T08:57:52.488Z,100532.25
2022-08-30T09:00:57.223Z,100534.16
2022-08-30T09:04:03.566Z,100529.78
2022-08-30T09:07:14.478Z,100526.63
2022-08-30T09:10:18.370Z,100526.63
2022-08-30T09:13:25.465Z,100524.63
2022-08-30T09:16:47.102Z,100527.81
2022-08-30T09:19:59.982Z,100527.47
2022-08-30T09:23:24.230Z,100524.25
2022-08-30T09:26:32.944Z,100513.84
2022-08-30T09:29:34.548Z,100516.47
2022-08-30T09:32:42.846Z,100524.09
2022-08-30T09:35:47.643Z,100509.97
2022-08-30T09:38:59.051Z,100502.38
2022-08-30T09:42:15.196Z,100505.94
2022-08-30T09:45:31.806Z,100508.53
2022-08-30T09:48:35.251Z,100499.31
2022-08-30T09:51:59.042Z,100506.28
2022-08-30T09:55:29.149Z,100501.94
2022-08-30T09:58:38.920Z,100493.84
2022-08-30T10:01:46.220Z,100493.03
2022-08-30T10:05:05.469Z,100493.25
2022-08-30T10:08:16.554Z,100481.91
2022-08-30T10:11:45.999Z,100481.75
2022-08-30T10:15:09.240Z,100475.16
2022-08-30T10:18:26.585Z,100475.66
2022-08-30T10:21:39.227Z,100465.00
2022-08-30T10:24:50.312Z,100463.22
2022-08-30T10:28:00.684Z,100460.88
2022-08-30T10:31:08.128Z,100463.88
2022-08-30T10:34:17.763Z,100455.78
2022-08-30T10:37:31.488Z,100457.47
2022-08-30T10:40:56.498Z,100458.84
2022-08-30T10:44:11.938Z,100462.59
2022-08-30T10:47:36.984Z,100455.81
2022-08-30T10:50:48.169Z,100449.25
2022-08-30T10:54:34.090Z,100456.56
2022-08-30T10:57:35.901Z,100447.34
2022-08-30T11:01:06.031Z,100444.50
2022-08-30T11:04:31.935Z,100438.91
2022-08-30T11:07:58.188Z,100434.38
2022-08-30T11:11:13.011Z,100450.34
2022-08-30T11:14:17.477Z,100448.44
2022-08-30T11:17:31.149Z,100439.84
2022-08-30T11:20:41.961Z,100442.00
2022-08-30T11:24:17.922Z,100441.25
2022-08-30T11:27:44.058Z,100433.91
2022-08-30T11:30:46.945Z,100443.53
2022-08-30T11:33:51.350Z,100434.78
2022-08-30T11:36:52.749Z,100423.81
2022-08-30T11:39:56.125Z,100427.25
2022-08-30T11:42:57.555Z,100431.78
2022-08-30T11:46:24.113Z,100419.47
2022-08-30T11:49:26.013Z,100432.06
2022-08-30T11:52:46.755Z,100427.50
2022-08-30T11:56:08.564Z,100429.19
2022-08-30T11:59:23.941Z,100416.50
2022-08-30T12:03:03.670Z,100423.75
2022-08-30T12:06:07.790Z,100425.84
2022-08-30T12:09:12.577Z,100413.13
2022-08-30T12:12:26.515Z,100414.25
2022-08-30T12:15:56.237Z,100411.66
2022-08-30T12:19:10.305Z,100410.13
2022-08-30T12:22:17.882Z,100404.22
2022-08-30T12:25:26.498Z,100403.88
2022-08-30T12:28:27.988Z,100402.44
2022-08-30T12:31:29.495Z,100402.66
2022-08-30T12:34:34.077Z,100398.94
2022-08-30T12:37:38.573Z,100403.78
2022-08-30T12:40:56.398Z,100399.75
2022-08-30T12:43:59.041Z,100396.97
2022-08-30T12:47:04.019Z,100396.13
2022-08-30T12:50:06.885Z,100394.69
2022-08-30T12:53:14.387Z,100403.66
2022-08-30T12:56:21.204Z,100392.50
2022-08-30T12:59:48.852Z,100381.03
2022-08-30T13:02:57.276Z,100380.88
2022-08-30T13:05:59.525Z,100383.69
2022-08-30T13:09:04.369Z,100387.53
2022-08-30T13:12:10.728Z,100375.97
2022-08-30T13:15:17.320Z,100375.94
2022-08-30T13:18:30.089Z,100382.38
2022-08-30T13:21:34.172Z,100377.84
2022-08-30T13:24:35.610Z,100366.97
2022-08-30T13:27:38.987Z,100363.84
2022-08-30T13:30:41.446Z,100359.59
2022-08-30T13:33:45.730Z,100344.13
2022-08-30T13:36:50.768Z,100348.84
2022-08-30T13:39:52.512Z,100344.13
2022-08-30T13:42:54.721Z,100351.09
2022-08-30T13:45:58.131Z,100342.78
2022-08-30T13:49:05.941Z,100336.34
2022-08-30T13:52:24.038Z,100335.31
2022-08-30T13:55:25.789Z,100352.44
2022-08-30T13:58:27.264Z,100335.50
2022-08-30T14:01:30.208Z,100338.69
2022-08-30T14:04:51.429Z,100323.38
2022-08-30T14:07:52.862Z,100330.94
2022-08-30T14:10:55.472Z,100328.38
2022-08-30T14:17:18.711Z,100313.78
2022-08-30T14:20:20.814Z,100325.28
2022-08-30T14:23:22.267Z,100319.78
2022-08-30T14:26:33.561Z,100309.25
2022-08-30T14:29:36.085Z,100310.38
2022-08-30T14:32:37.802Z,100301.81
2022-08-30T14:35:39.271Z,100307.66
2022-08-30T14:38:40.772Z,100302.38
2022-08-30T14:41:46.856Z,100299.66
2022-08-30T14:44:56.373Z,100299.03
2022-08-30T14:47:58.389Z,100294.09
2022-08-30T14:51:00.630Z,100290.00
2022-08-30T14:54:02.066Z,100286.06
2022-08-30T14:57:03.662Z,100282.06
2022-08-30T15:00:08.544Z,100278.66
2022-08-30T15:03:11.972Z,100278.75
2022-08-30T15:06:13.471Z,100270.91
2022-08-30T15:09:19.094Z,100271.19
2022-08-30T15:12:24.933Z,100276.03
2022-08-30T15:15:26.533Z,100269.59
2022-08-30T15:18:27.998Z,100273.28
2022-08-30T15:21:39.001Z,100270.31
2022-08-30T15:24:40.864Z,100261.09
2022-08-30T15:27:42.336Z,100255.00
2022-08-30T15:30:44.304Z,100266.59
2022-08-30T15:33:46.033Z,100255.69
2022-08-30T15:36:48.277Z,100255.69
2022-08-30T15:39:52.672Z,100248.88
2022-08-30T15:42:54.217Z,100247.81
2022-08-30T15:45:56.172Z,100254.03
2022-08-30T15:49:04.576Z,100248.72
2022-08-30T15:52:06.169Z,100248.56
2022-08-30T15:55:10.274Z,100243.38
2022-08-30T15:58:11.742Z,100241.56
2022-08-30T16:01:14.534Z,100244.13
2022-08-30T16:04:18.485Z,100247.69
2022-08-30T16:07:20.204Z,100246.53
2022-08-30T16:10:21.628Z,100242.19
2022-08-30T16:13:23.081Z,100242.81
2022-08-30T16:16:27.287Z,100242.56
2022-08-30T16:19:29.084Z,100255.81
2022-08-30T16:22:30.782Z,100242.22
2022-08-30T16:25:40.064Z,100241.00
2022-08-30T16:28:42.786Z,100238.38
2022-08-30T16:31:45.460Z,100237.50
2022-08-30T16:34:49.828Z,100234.50
2022-08-30T16:37:51.457Z,100230.47
2022-08-30T16:40:53.037Z,100230.53
2022-08-30T16:43:55.124Z,100231.19
2022-08-30T16:46:57.050Z,100235.56
2022-08-30T16:50:01.617Z,100234.53
2022-08-30T16:53:03.261Z,100232.00
2022-08-30T16:56:09.943Z,100230.72
2022-08-30T16:59:13.085Z,100225.91
2022-08-30T17:02:14.607Z,100227.06
2022-08-30T17:05:16.056Z,100239.91
2022-08-30T17:08:17.632Z,100238.56
2022-08-30T17:11:20.012Z,100237.28
2022-08-30T17:14:28.083Z,100238.00
2022-08-30T17:17:30.784Z,100232.78
2022-08-30T17:20:33.406Z,100226.25
2022-08-30T17:23:36.026Z,100234.13
2022-08-30T17:26:39.941Z,100236.63
2022-08-30T17:29:41.834Z,100243.03
2022-08-30T17:32:43.480Z,100239.66
2022-08-30T17:35:45.781Z,100249.38
2022-08-30T17:38:48.107Z,100244.09
2022-08-30T17:41:51.712Z,100263.66
2022-08-30T17:44:54.497Z,100256.28
2022-08-30T17:47:56.917Z,100254.16
2022-08-30T17:51:00.603Z,100256.59
2022-08-30T17:54:02.130Z,100259.13
2022-08-30T17:57:10.673Z,100260.69
2022-08-30T18:00:15.693Z,100273.31
2022-08-30T18:03:17.502Z,100270.19
2022-08-30T18:06:19.187Z,100273.13
2022-08-30T18:09:22.436Z,100276.44
2022-08-30T18:12:23.950Z,100278.22
2022-08-30T18:15:28.370Z,100283.09
2022-08-30T18:18:30.917Z,100287.69
2022-08-30T18:21:34.739Z,100282.34
2022-08-30T18:24:36.256Z,100279.66
2022-08-30T18:27:39.069Z,100277.75
2022-08-30T18:30:42.404Z,100287.84
2022-08-30T18:33:44.031Z,100287.00
2022-08-30T18:36:45.555Z,100281.66
2022-08-30T18:39:48.321Z,100291.56
2022-08-30T18:42:51.830Z,100281.00
2022-08-30T18:45:54.338Z,100287.44
2022-08-30T18:48:55.864Z,100292.91
2022-08-30T18:51:58.376Z,100292.06
2022-08-30T18:54:59.934Z,100295.94
2022-08-30T18:58:02.542Z,100300.50
2022-08-30T19:01:04.486Z,100286.88
2022-08-30T19:04:06.066Z,100295.25
2022-08-30T19:07:09.875Z,100300.63
2022-08-30T19:10:15.113Z,100288.69
2022-08-30T19:13:22.607Z,100297.31
2022-08-30T19:16:25.641Z,100292.47
2022-08-30T19:19:27.326Z,100295.97
2022-08-30T19:22:39.860Z,100306.34
2022-08-30T19:25:51.612Z,100303.09
2022-08-30T19:28:54.891Z,100305.44
2022-08-30T19:31:56.760Z,100307.16
2022-08-30T19:34:58.720Z,100303.97
2022-08-30T19:38:00.350Z,100299.59
2022-08-30T19:41:03.436Z,100301.69
2022-08-30T19:44:06.301Z,100307.88
2022-08-30T19:47:08.137Z,100307.91
2022-08-30T19:50:09.789Z,100315.66
2022-08-30T19:53:11.758Z,100312.94
2022-08-30T19:56:13.484Z,100319.44
2022-08-30T19:59:15.114Z,100321.78
2022-08-30T20:02:18.237Z,100330.28
2022-08-30T20:05:21.455Z,100330.28
2022-08-30T20:08:23.029Z,100324.16
2022-08-30T20:11:24.522Z,100323.28
2022-08-30T20:14:26.122Z,100319.97
2022-08-30T20:17:37.876Z,100326.47
2022-08-30T20:20:49.559Z,100335.03
2022-08-30T20:23:51.558Z,100336.25
2022-08-30T20:26:53.540Z,100330.59
2022-08-30T20:29:55.646Z,100337.97
2022-08-30T20:32:57.279Z,100332.09
2022-08-30T20:36:02.570Z,100327.19
2022-08-30T20:39:09.413Z,100325.56
2022-08-30T20:42:10.874Z,100330.59
2022-08-30T20:45:16.150Z,100335.41
2022-08-30T20:48:18.710Z,100335.31
2022-08-30T20:51:23.016Z,100331.53
2022-08-30T20:54:25.301Z,100323.56
2022-08-30T20:57:26.979Z,100318.53
2022-08-30T21:00:28.528Z,100310.88
2022-08-30T21:03:33.365Z,100310.00
2022-08-30T21:06:37.453Z,100327.09
2022-08-30T21:09:39.059Z,100322.28
2022-08-30T21:12:40.574Z,100320.28
2022-08-30T21:15:45.814Z,100324.03
2022-08-30T21:18:47.350Z,100336.44
2022-08-30T21:21:48.842Z,100331.94
2022-08-30T21:24:52.438Z,100331.09
2022-08-30T21:27:54.850Z,100331.81
2022-08-30T21:31:11.111Z,100336.16
2022-08-30T21:34:17.215Z,100327.88
2022-08-30T21:37:19.176Z,100337.19
2022-08-30T21:40:21.104Z,100332.38
2022-08-30T21:43:22.604Z,100334.66
2022-08-30T21:46:25.740Z,100334.66
2022-08-30T21:49:27.352Z,100341.72
2022-08-30T21:52:28.883Z,100342.97
2022-08-30T21:55:30.402Z,100345.94
2022-08-30T21:58:31.828Z,100344.22
2022-08-30T22:01:34.641Z,100345.06
2022-08-30T22:04:41.147Z,100346.59
2022-08-30T22:07:42.697Z,100348.63
2022-08-30T22:10:44.692Z,100355.47
2022-08-30T22:13:48.156Z,100359.78
2022-08-30T22:16:49.779Z,100351.09
2022-08-30T22:19:51.752Z,100355.84
2022-08-30T22:22:53.199Z,100355.97
2022-08-30T22:25:54.719Z,100361.28
2022-08-30T22:28:56.317Z,100362.13
2022-08-30T22:31:58.014Z,100366.66
2022-08-30T22:34:59.516Z,100361.66
2022-08-30T22:38:01.018Z,100364.09
2022-08-30T22:41:02.676Z,100363.31
2022-08-30T22:44:04.683Z,100365.50
2022-08-30T22:47:06.312Z,100363.84
2022-08-30T22:50:08.146Z,100361.22
2022-08-30T22:53:09.749Z,100356.91
2022-08-30T22:56:14.428Z,100356.25
2022-08-30T22:59:15.995Z,100352.06
2022-08-30T23:02:17.976Z,100360.03
2022-08-30T23:05:22.138Z,100359.09
2022-08-30T23:08:24.009Z,100362.59
2022-08-30T23:11:26.127Z,100360.38
2022-08-30T23:14:27.573Z,100358.09
2022-08-30T23:17:29.068Z,100365.41
2022-08-30T23:20:34.869Z,100365.50
2022-08-30T23:23:54.602Z,100370.16
2022-08-30T23:27:14.801Z,100370.31
2022-08-30T23:30:34.739Z,100366.00
2022-08-30T23:33:54.970Z,100366.97
2022-08-30T23:37:15.154Z,100366.56
2022-08-30T23:40:35.572Z,100361.44
2022-08-30T23:43:56.194Z,100359.34
2022-08-30T23:47:16.439Z,100370.97
2022-08-30T23:50:36.996Z,100364.28
2022-08-30T23:53:57.378Z,100365.28
2022-08-30T23:57:17.648Z,100364.50
